EDT,Max TemperatureF,Mean TemperatureF,Min TemperatureF,Max Dew PointF,MeanDew PointF,Min DewpointF,Max Humidity, Mean Humidity, Min Humidity, Max Sea Level PressureIn, Mean Sea Level PressureIn, Min Sea Level PressureIn, Max VisibilityMiles, Mean VisibilityMiles, Min VisibilityMiles, Max Wind SpeedMPH, Mean Wind SpeedMPH, Max Gust SpeedMPH,PrecipitationIn, CloudCover, Events, WindDirDegrees
2013-4-1,49,43,37,43,30,10,86,56,25,30.05,29.89,29.76,10,10,8,14,7,22,0.00,6,,265
2013-4-2,45,37,29,15,12,8,50,36,22,30.23,30.15,30.06,10,10,10,14,6,21,0.00,2,,286
2013-4-3,46,36,25,18,13,8,74,48,22,30.41,30.32,30.22,10,9,5,17,6,29,0.00,0,,317
2013-4-4,59,42,24,18,13,8,63,39,15,30.39,30.20,30.00,10,10,10,12,3,16,0.00,0,,154
2013-4-5,61,47,32,33,24,19,72,48,24,30.17,30.01,29.95,10,10,9,18,5,26,0.00,1,,322
2013-4-6,65,47,28,23,14,3,75,42,9,30.30,30.18,30.04,10,10,10,16,4,22,0.00,0,,2
2013-4-7,75,66,56,49,36,25,62,45,27,30.04,29.98,29.91,10,10,9,17,8,30,T,3,Rain,211
2013-4-8,77,65,53,48,45,40,77,54,31,30.06,29.99,29.93,10,10,10,15,5,23,T,5,,215
2013-4-9,83,70,57,52,50,47,72,53,34,30.11,30.02,29.95,10,10,10,14,5,23,0.00,1,,197
2013-4-10,86,75,63,56,52,49,78,54,30,29.99,29.92,29.81,10,10,10,31,7,52,0.00,3,,210
2013-4-11,83,70,57,57,53,50,86,60,34,29.88,29.77,29.58,10,10,10,17,5,22,0.00,1,,117
2013-4-12,75,62,49,61,49,33,93,62,31,29.86,29.65,29.53,10,9,2,18,8,28,0.34,6,Rain,224
2013-4-13,63,53,42,35,31,27,65,46,27,30.02,29.94,29.88,10,10,10,16,6,25,0.00,3,,254
2013-4-14,67,51,35,36,32,27,76,51,26,30.17,30.08,30.00,10,10,10,13,3,18,0.00,0,,22
2013-4-15,67,62,56,48,44,36,67,51,34,30.14,30.08,29.99,10,10,8,20,9,25,T,6,Rain,157
2013-4-16,82,70,58,61,54,48,64,52,39,30.25,30.13,30.04,10,8,1,17,6,28,0.82,4,Rain-Thunderstorm,229
2013-4-17,70,64,58,58,57,56,100,83,66,30.25,30.19,30.10,10,4,0,13,3,18,0.01,5,Fog,4
2013-4-18,85,75,64,61,55,51,73,55,37,30.11,29.95,29.81,10,10,3,25,12,35,0.04,2,Rain,167
2013-4-19,75,61,46,61,49,31,71,60,49,29.88,29.70,29.53,10,9,2,26,10,37,0.20,5,Rain,208
2013-4-20,53,45,37,33,25,20,70,49,28,30.40,30.14,29.90,10,10,9,16,8,26,0.01,5,Rain,276
2013-4-21,58,44,29,29,23,17,85,55,24,30.59,30.50,30.43,10,10,10,15,5,22,0.00,0,,26
2013-4-22,63,53,43,30,24,18,50,34,17,30.45,30.37,30.28,10,10,10,16,9,25,0.00,0,,111
2013-4-23,72,57,42,40,32,27,67,43,19,30.27,30.14,29.98,10,10,10,14,6,20,0.00,0,,137
2013-4-24,77,60,42,58,46,33,77,59,41,30.19,29.92,29.78,10,9,2,21,9,33,0.17,5,Rain-Thunderstorm,233
2013-4-25,60,47,34,35,31,26,89,60,30,30.36,30.27,30.19,10,10,10,14,5,21,0.00,3,,258
2013-4-26,63,51,38,37,32,26,92,60,27,30.48,30.42,30.38,10,10,7,9,2,13,0.00,2,,27
2013-4-27,76,57,37,40,34,29,85,52,18,30.40,30.29,30.17,10,10,9,16,5,22,0.00,0,,91
2013-4-28,64,60,56,52,46,40,86,67,47,30.18,30.06,29.97,10,9,4,21,8,28,0.17,5,Rain,148
2013-4-29,67,61,54,55,51,46,86,72,58,30.04,30.00,29.96,10,9,4,13,4,17,0.06,7,Rain,168
2013-4-30,75,66,56,52,50,48,83,63,43,30.19,30.10,30.03,10,10,10,16,7,23,0.00,3,,100